sensor_id;sensor_type;location;lat;lon;timestamp;P1;durP1;ratioP1;P2;durP2;ratioP2
9745;SDS011;4912;50.836;12.958;2023-03-01T00:00:04;25.80;;;12.48;;
9745;SDS011;4912;50.836;12.958;2023-03-01T00:02:39;24.97;;;12.83;;
9745;SDS011;4912;50.836;12.958;2023-03-01T00:05:10;22.58;;;12.05;;
9745;SDS011;4912;50.836;12.958;2023-03-01T00:07:43;25.00;;;12.60;;
9745;SDS011;4912;50.836;12.958;2023-03-01T00:10:14;21.30;;;12.00;;
9745;SDS011;4912;50.836;12.958;2023-03-01T00:12:44;24.67;;;12.88;;
9745;SDS011;4912;50.836;12.958;2023-03-01T00:15:14;22.67;;;11.97;;
9745;SDS011;4912;50.836;12.958;2023-03-01T00:17:48;23.13;;;12.27;;
9745;SDS011;4912;50.836;12.958;2023-03-01T00:20:18;24.40;;;11.53;;
9745;SDS011;4912;50.836;12.958;2023-03-01T00:22:51;24.27;;;12.30;;
9745;SDS011;4912;50.836;12.958;2023-03-01T00:25:21;23.03;;;11.87;;
9745;SDS011;4912;50.836;12.958;2023-03-01T00:27:52;22.40;;;11.77;;
9745;SDS011;4912;50.836;12.958;2023-03-01T00:30:25;25.33;;;12.67;;
9745;SDS011;4912;50.836;12.958;2023-03-01T00:32:55;25.27;;;12.47;;
9745;SDS011;4912;50.836;12.958;2023-03-01T00:35:25;22.73;;;12.43;;
9745;SDS011;4912;50.836;12.958;2023-03-01T00:37:59;25.30;;;12.60;;
9745;SDS011;4912;50.836;12.958;2023-03-01T00:40:33;27.17;;;12.50;;
9745;SDS011;4912;50.836;12.958;2023-03-01T00:43:05;23.93;;;13.00;;
9745;SDS011;4912;50.836;12.958;2023-03-01T00:45:36;25.42;;;12.18;;
9745;SDS011;4912;50.836;12.958;2023-03-01T00:48:07;23.07;;;11.93;;
9745;SDS011;4912;50.836;12.958;2023-03-01T00:50:37;23.75;;;12.20;;
9745;SDS011;4912;50.836;12.958;2023-03-01T00:53:10;23.30;;;12.00;;
9745;SDS011;4912;50.836;12.958;2023-03-01T00:55:41;24.90;;;13.53;;
9745;SDS011;4912;50.836;12.958;2023-03-01T00:58:13;25.23;;;12.83;;
9745;SDS011;4912;50.836;12.958;2023-03-01T01:00:44;28.10;;;13.52;;
9745;SDS011;4912;50.836;12.958;2023-03-01T01:03:15;28.33;;;13.45;;
9745;SDS011;4912;50.836;12.958;2023-03-01T01:05:45;31.58;;;13.88;;
9745;SDS011;4912;50.836;12.958;2023-03-01T01:08:19;24.55;;;13.02;;
9745;SDS011;4912;50.836;12.958;2023-03-01T01:10:49;28.03;;;13.40;;
9745;SDS011;4912;50.836;12.958;2023-03-01T01:13:22;23.63;;;12.87;;
9745;SDS011;4912;50.836;12.958;2023-03-01T01:15:52;24.13;;;12.63;;
9745;SDS011;4912;50.836;12.958;2023-03-01T01:18:23;24.90;;;12.70;;
9745;SDS011;4912;50.836;12.958;2023-03-01T01:20:53;26.53;;;12.57;;
9745;SDS011;4912;50.836;12.958;2023-03-01T01:23:26;25.73;;;13.37;;
9745;SDS011;4912;50.836;12.958;2023-03-01T01:25:56;24.07;;;13.43;;
9745;SDS011;4912;50.836;12.958;2023-03-01T01:28:30;25.40;;;12.83;;
9745;SDS011;4912;50.836;12.958;2023-03-01T01:31:00;34.17;;;15.10;;
9745;SDS011;4912;50.836;12.958;2023-03-01T01:33:31;27.58;;;14.40;;
9745;SDS011;4912;50.836;12.958;2023-03-01T01:36:01;26.57;;;13.77;;
9745;SDS011;4912;50.836;12.958;2023-03-01T01:41:07;28.03;;;13.43;;
9745;SDS011;4912;50.836;12.958;2023-03-01T01:43:41;24.83;;;13.30;;
9745;SDS011;4912;50.836;12.958;2023-03-01T01:46:16;26.87;;;13.03;;
9745;SDS011;4912;50.836;12.958;2023-03-01T01:48:57;24.47;;;12.77;;
9745;SDS011;4912;50.836;12.958;2023-03-01T01:51:33;25.40;;;13.47;;
9745;SDS011;4912;50.836;12.958;2023-03-01T01:54:11;21.63;;;12.43;;
9745;SDS011;4912;50.836;12.958;2023-03-01T01:56:47;25.13;;;13.10;;
9745;SDS011;4912;50.836;12.958;2023-03-01T01:59:21;24.57;;;13.00;;
9745;SDS011;4912;50.836;12.958;2023-03-01T02:01:53;28.23;;;14.13;;
9745;SDS011;4912;50.836;12.958;2023-03-01T02:04:23;25.50;;;13.40;;
9745;SDS011;4912;50.836;12.958;2023-03-01T02:06:59;28.13;;;13.93;;
9745;SDS011;4912;50.836;12.958;2023-03-01T02:09:45;33.30;;;14.97;;
9745;SDS011;4912;50.836;12.958;2023-03-01T02:12:20;27.33;;;12.87;;
9745;SDS011;4912;50.836;12.958;2023-03-01T02:14:54;31.50;;;14.87;;
9745;SDS011;4912;50.836;12.958;2023-03-01T02:17:24;25.50;;;13.03;;
9745;SDS011;4912;50.836;12.958;2023-03-01T02:19:59;24.02;;;13.23;;
9745;SDS011;4912;50.836;12.958;2023-03-01T02:22:43;28.90;;;14.00;;
9745;SDS011;4912;50.836;12.958;2023-03-01T02:25:26;27.77;;;13.33;;
9745;SDS011;4912;50.836;12.958;2023-03-01T02:28:02;23.63;;;12.83;;
9745;SDS011;4912;50.836;12.958;2023-03-01T02:30:43;30.83;;;14.87;;
9745;SDS011;4912;50.836;12.958;2023-03-01T02:33:28;23.83;;;12.87;;
9745;SDS011;4912;50.836;12.958;2023-03-01T02:36:03;26.33;;;13.53;;
9745;SDS011;4912;50.836;12.958;2023-03-01T02:38:39;24.93;;;12.83;;
9745;SDS011;4912;50.836;12.958;2023-03-01T02:41:11;27.48;;;14.43;;
9745;SDS011;4912;50.836;12.958;2023-03-01T02:43:45;28.57;;;13.77;;
9745;SDS011;4912;50.836;12.958;2023-03-01T02:46:20;29.67;;;12.52;;
9745;SDS011;4912;50.836;12.958;2023-03-01T02:48:53;30.30;;;13.73;;
9745;SDS011;4912;50.836;12.958;2023-03-01T02:51:38;24.97;;;13.37;;
9745;SDS011;4912;50.836;12.958;2023-03-01T02:56:51;27.67;;;12.60;;
9745;SDS011;4912;50.836;12.958;2023-03-01T02:59:24;25.80;;;12.90;;
9745;SDS011;4912;50.836;12.958;2023-03-01T03:02:03;25.97;;;12.93;;
9745;SDS011;4912;50.836;12.958;2023-03-01T03:04:33;27.67;;;14.13;;
9745;SDS011;4912;50.836;12.958;2023-03-01T03:07:04;29.30;;;13.63;;
9745;SDS011;4912;50.836;12.958;2023-03-01T03:09:34;26.13;;;12.50;;
9745;SDS011;4912;50.836;12.958;2023-03-01T03:12:04;29.00;;;14.00;;
9745;SDS011;4912;50.836;12.958;2023-03-01T03:14:35;30.77;;;14.02;;
9745;SDS011;4912;50.836;12.958;2023-03-01T03:17:08;34.90;;;15.47;;
9745;SDS011;4912;50.836;12.958;2023-03-01T03:19:38;26.57;;;14.17;;
9745;SDS011;4912;50.836;12.958;2023-03-01T03:22:11;27.43;;;14.17;;
9745;SDS011;4912;50.836;12.958;2023-03-01T03:24:42;28.10;;;14.30;;
9745;SDS011;4912;50.836;12.958;2023-03-01T03:27:12;26.97;;;13.97;;
9745;SDS011;4912;50.836;12.958;2023-03-01T03:29:43;30.07;;;15.40;;
9745;SDS011;4912;50.836;12.958;2023-03-01T03:32:15;29.27;;;14.50;;
9745;SDS011;4912;50.836;12.958;2023-03-01T03:34:46;27.80;;;14.50;;
9745;SDS011;4912;50.836;12.958;2023-03-01T03:37:16;25.73;;;13.77;;
9745;SDS011;4912;50.836;12.958;2023-03-01T03:39:59;26.77;;;14.20;;
9745;SDS011;4912;50.836;12.958;2023-03-01T03:42:30;25.90;;;13.45;;
9745;SDS011;4912;50.836;12.958;2023-03-01T03:45:00;30.30;;;14.23;;
9745;SDS011;4912;50.836;12.958;2023-03-01T03:47:33;30.53;;;13.80;;
9745;SDS011;4912;50.836;12.958;2023-03-01T03:50:03;30.17;;;13.73;;
9745;SDS011;4912;50.836;12.958;2023-03-01T03:52:35;26.30;;;13.20;;
9745;SDS011;4912;50.836;12.958;2023-03-01T03:55:05;30.20;;;14.03;;
9745;SDS011;4912;50.836;12.958;2023-03-01T03:57:39;28.03;;;13.80;;
9745;SDS011;4912;50.836;12.958;2023-03-01T04:00:11;34.43;;;14.93;;
9745;SDS011;4912;50.836;12.958;2023-03-01T04:02:45;25.20;;;13.53;;
9745;SDS011;4912;50.836;12.958;2023-03-01T04:05:18;27.40;;;13.70;;
9745;SDS011;4912;50.836;12.958;2023-03-01T04:10:28;22.77;;;12.30;;
9745;SDS011;4912;50.836;12.958;2023-03-01T04:13:00;25.20;;;12.20;;
9745;SDS011;4912;50.836;12.958;2023-03-01T04:15:31;27.23;;;12.38;;
9745;SDS011;4912;50.836;12.958;2023-03-01T04:18:04;26.60;;;13.52;;
9745;SDS011;4912;50.836;12.958;2023-03-01T04:20:35;25.13;;;12.20;;
9745;SDS011;4912;50.836;12.958;2023-03-01T04:23:06;27.60;;;12.30;;
9745;SDS011;4912;50.836;12.958;2023-03-01T04:25:45;25.43;;;13.13;;
9745;SDS011;4912;50.836;12.958;2023-03-01T04:28:20;26.50;;;12.73;;
9745;SDS011;4912;50.836;12.958;2023-03-01T04:33:25;27.95;;;12.48;;
9745;SDS011;4912;50.836;12.958;2023-03-01T04:35:55;26.20;;;13.80;;
9745;SDS011;4912;50.836;12.958;2023-03-01T04:38:26;29.27;;;13.43;;
9745;SDS011;4912;50.836;12.958;2023-03-01T04:40:56;24.37;;;12.60;;
9745;SDS011;4912;50.836;12.958;2023-03-01T04:43:26;27.13;;;13.27;;
9745;SDS011;4912;50.836;12.958;2023-03-01T04:45:59;29.63;;;13.20;;
9745;SDS011;4912;50.836;12.958;2023-03-01T04:48:35;25.47;;;13.30;;
9745;SDS011;4912;50.836;12.958;2023-03-01T04:51:07;31.90;;;13.73;;
9745;SDS011;4912;50.836;12.958;2023-03-01T04:53:40;33.77;;;14.77;;
9745;SDS011;4912;50.836;12.958;2023-03-01T04:56:11;23.07;;;12.90;;
9745;SDS011;4912;50.836;12.958;2023-03-01T04:58:45;31.47;;;13.53;;
9745;SDS011;4912;50.836;12.958;2023-03-01T05:01:16;24.43;;;12.83;;
9745;SDS011;4912;50.836;12.958;2023-03-01T05:03:52;28.73;;;13.83;;
9745;SDS011;4912;50.836;12.958;2023-03-01T05:06:29;28.20;;;13.60;;
9745;SDS011;4912;50.836;12.958;2023-03-01T05:08:59;26.33;;;12.80;;
9745;SDS011;4912;50.836;12.958;2023-03-01T05:11:29;26.53;;;12.97;;
9745;SDS011;4912;50.836;12.958;2023-03-01T05:14:02;29.67;;;12.53;;
9745;SDS011;4912;50.836;12.958;2023-03-01T05:16:34;26.02;;;12.98;;
9745;SDS011;4912;50.836;12.958;2023-03-01T05:19:08;26.83;;;13.07;;
9745;SDS011;4912;50.836;12.958;2023-03-01T05:21:41;25.97;;;12.70;;
9745;SDS011;4912;50.836;12.958;2023-03-01T05:24:25;25.80;;;12.60;;
9745;SDS011;4912;50.836;12.958;2023-03-01T05:26:56;26.15;;;13.00;;
9745;SDS011;4912;50.836;12.958;2023-03-01T05:29:27;29.80;;;12.65;;
9745;SDS011;4912;50.836;12.958;2023-03-01T05:32:02;26.23;;;13.03;;
9745;SDS011;4912;50.836;12.958;2023-03-01T05:34:36;25.33;;;12.90;;
9745;SDS011;4912;50.836;12.958;2023-03-01T05:37:06;25.40;;;13.13;;
9745;SDS011;4912;50.836;12.958;2023-03-01T05:39:37;28.38;;;14.27;;
9745;SDS011;4912;50.836;12.958;2023-03-01T05:42:09;25.77;;;12.80;;
9745;SDS011;4912;50.836;12.958;2023-03-01T05:44:40;28.27;;;13.30;;
9745;SDS011;4912;50.836;12.958;2023-03-01T05:47:11;27.73;;;12.87;;
9745;SDS011;4912;50.836;12.958;2023-03-01T05:49:44;27.67;;;13.83;;
9745;SDS011;4912;50.836;12.958;2023-03-01T05:52:16;29.57;;;13.20;;
9745;SDS011;4912;50.836;12.958;2023-03-01T05:54:46;26.17;;;13.00;;
9745;SDS011;4912;50.836;12.958;2023-03-01T05:57:16;26.57;;;12.87;;
9745;SDS011;4912;50.836;12.958;2023-03-01T05:59:46;28.10;;;13.33;;
9745;SDS011;4912;50.836;12.958;2023-03-01T06:02:17;30.07;;;13.63;;
9745;SDS011;4912;50.836;12.958;2023-03-01T06:04:50;26.43;;;14.43;;
9745;SDS011;4912;50.836;12.958;2023-03-01T06:07:20;21.77;;;12.07;;
9745;SDS011;4912;50.836;12.958;2023-03-01T06:09:51;25.37;;;13.03;;
9745;SDS011;4912;50.836;12.958;2023-03-01T06:12:21;31.63;;;13.63;;
9745;SDS011;4912;50.836;12.958;2023-03-01T06:14:54;25.67;;;12.43;;
9745;SDS011;4912;50.836;12.958;2023-03-01T06:17:25;27.93;;;13.17;;
9745;SDS011;4912;50.836;12.958;2023-03-01T06:20:00;27.10;;;13.50;;
9745;SDS011;4912;50.836;12.958;2023-03-01T06:22:31;26.97;;;13.20;;
9745;SDS011;4912;50.836;12.958;2023-03-01T06:25:02;27.83;;;13.18;;
9745;SDS011;4912;50.836;12.958;2023-03-01T06:27:33;27.17;;;12.93;;
9745;SDS011;4912;50.836;12.958;2023-03-01T06:30:05;28.50;;;13.07;;
9745;SDS011;4912;50.836;12.958;2023-03-01T06:32:38;29.90;;;13.27;;
9745;SDS011;4912;50.836;12.958;2023-03-01T06:35:12;25.23;;;12.90;;
9745;SDS011;4912;50.836;12.958;2023-03-01T06:37:44;27.17;;;13.53;;
9745;SDS011;4912;50.836;12.958;2023-03-01T06:40:16;22.57;;;12.17;;
9745;SDS011;4912;50.836;12.958;2023-03-01T06:42:48;27.83;;;13.17;;
9745;SDS011;4912;50.836;12.958;2023-03-01T06:45:23;32.43;;;14.50;;
9745;SDS011;4912;50.836;12.958;2023-03-01T06:48:00;30.67;;;14.15;;
9745;SDS011;4912;50.836;12.958;2023-03-01T06:50:35;27.03;;;13.83;;
9745;SDS011;4912;50.836;12.958;2023-03-01T06:53:06;32.10;;;16.37;;
9745;SDS011;4912;50.836;12.958;2023-03-01T06:55:37;29.08;;;14.48;;
9745;SDS011;4912;50.836;12.958;2023-03-01T06:58:08;29.93;;;13.87;;
9745;SDS011;4912;50.836;12.958;2023-03-01T07:00:39;25.67;;;13.97;;
9745;SDS011;4912;50.836;12.958;2023-03-01T07:03:10;25.92;;;13.30;;
9745;SDS011;4912;50.836;12.958;2023-03-01T07:05:43;29.60;;;14.43;;
9745;SDS011;4912;50.836;12.958;2023-03-01T07:08:14;23.03;;;12.50;;
9745;SDS011;4912;50.836;12.958;2023-03-01T07:10:44;25.57;;;13.43;;
9745;SDS011;4912;50.836;12.958;2023-03-01T07:13:18;27.97;;;14.47;;
9745;SDS011;4912;50.836;12.958;2023-03-01T07:15:48;29.03;;;13.93;;
9745;SDS011;4912;50.836;12.958;2023-03-01T07:18:18;25.27;;;13.63;;
9745;SDS011;4912;50.836;12.958;2023-03-01T07:20:51;25.20;;;12.77;;
9745;SDS011;4912;50.836;12.958;2023-03-01T07:23:22;24.27;;;13.37;;
9745;SDS011;4912;50.836;12.958;2023-03-01T07:25:52;24.50;;;12.77;;
9745;SDS011;4912;50.836;12.958;2023-03-01T07:28:23;26.25;;;12.93;;
9745;SDS011;4912;50.836;12.958;2023-03-01T07:30:54;22.27;;;12.43;;
9745;SDS011;4912;50.836;12.958;2023-03-01T07:33:25;22.77;;;11.85;;
9745;SDS011;4912;50.836;12.958;2023-03-01T07:35:58;25.93;;;13.70;;
9745;SDS011;4912;50.836;12.958;2023-03-01T07:38:31;22.73;;;11.93;;
9745;SDS011;4912;50.836;12.958;2023-03-01T07:41:02;24.80;;;12.85;;
9745;SDS011;4912;50.836;12.958;2023-03-01T07:43:33;23.70;;;13.37;;
9745;SDS011;4912;50.836;12.958;2023-03-01T07:46:04;20.48;;;12.27;;
9745;SDS011;4912;50.836;12.958;2023-03-01T07:48:35;21.40;;;12.85;;
9745;SDS011;4912;50.836;12.958;2023-03-01T07:53:39;23.35;;;13.30;;
9745;SDS011;4912;50.836;12.958;2023-03-01T07:56:10;22.00;;;14.53;;
9745;SDS011;4912;50.836;12.958;2023-03-01T07:58:44;23.13;;;14.25;;
9745;SDS011;4912;50.836;12.958;2023-03-01T08:01:17;23.10;;;14.57;;
9745;SDS011;4912;50.836;12.958;2023-03-01T08:03:50;25.85;;;14.73;;
9745;SDS011;4912;50.836;12.958;2023-03-01T08:06:23;24.55;;;15.38;;
9745;SDS011;4912;50.836;12.958;2023-03-01T08:08:53;25.85;;;15.70;;
9745;SDS011;4912;50.836;12.958;2023-03-01T08:11:25;23.63;;;14.60;;
9745;SDS011;4912;50.836;12.958;2023-03-01T08:13:56;23.38;;;14.65;;
9745;SDS011;4912;50.836;12.958;2023-03-01T08:16:26;24.88;;;15.57;;
9745;SDS011;4912;50.836;12.958;2023-03-01T08:21:35;24.92;;;15.15;;
9745;SDS011;4912;50.836;12.958;2023-03-01T08:24:06;23.90;;;15.02;;
9745;SDS011;4912;50.836;12.958;2023-03-01T08:26:37;22.35;;;14.32;;
9745;SDS011;4912;50.836;12.958;2023-03-01T08:29:07;23.70;;;14.93;;
9745;SDS011;4912;50.836;12.958;2023-03-01T08:31:38;26.38;;;14.63;;
9745;SDS011;4912;50.836;12.958;2023-03-01T08:34:11;22.90;;;14.15;;
9745;SDS011;4912;50.836;12.958;2023-03-01T08:36:46;22.98;;;14.38;;
9745;SDS011;4912;50.836;12.958;2023-03-01T08:39:19;23.10;;;14.27;;
9745;SDS011;4912;50.836;12.958;2023-03-01T08:41:51;22.58;;;13.63;;
9745;SDS011;4912;50.836;12.958;2023-03-01T08:44:22;22.30;;;14.40;;
9745;SDS011;4912;50.836;12.958;2023-03-01T08:46:52;21.65;;;14.05;;
9745;SDS011;4912;50.836;12.958;2023-03-01T08:49:24;20.67;;;13.63;;
9745;SDS011;4912;50.836;12.958;2023-03-01T08:51:57;20.48;;;13.88;;
9745;SDS011;4912;50.836;12.958;2023-03-01T08:54:28;23.70;;;14.48;;
9745;SDS011;4912;50.836;12.958;2023-03-01T08:56:58;19.48;;;13.70;;
9745;SDS011;4912;50.836;12.958;2023-03-01T08:59:31;21.88;;;13.80;;
9745;SDS011;4912;50.836;12.958;2023-03-01T09:02:04;20.48;;;13.07;;
9745;SDS011;4912;50.836;12.958;2023-03-01T09:04:38;19.05;;;13.63;;
9745;SDS011;4912;50.836;12.958;2023-03-01T09:07:11;22.38;;;14.63;;
9745;SDS011;4912;50.836;12.958;2023-03-01T09:09:41;20.40;;;13.23;;
9745;SDS011;4912;50.836;12.958;2023-03-01T09:12:12;19.50;;;12.77;;
9745;SDS011;4912;50.836;12.958;2023-03-01T09:14:45;18.25;;;12.70;;
9745;SDS011;4912;50.836;12.958;2023-03-01T09:17:15;20.70;;;12.57;;
9745;SDS011;4912;50.836;12.958;2023-03-01T09:19:49;17.42;;;12.57;;
9745;SDS011;4912;50.836;12.958;2023-03-01T09:22:22;18.17;;;12.45;;
9745;SDS011;4912;50.836;12.958;2023-03-01T09:24:55;18.95;;;12.98;;
9745;SDS011;4912;50.836;12.958;2023-03-01T09:27:26;19.92;;;13.13;;
9745;SDS011;4912;50.836;12.958;2023-03-01T09:29:56;18.88;;;13.38;;
9745;SDS011;4912;50.836;12.958;2023-03-01T09:32:26;19.92;;;12.65;;
9745;SDS011;4912;50.836;12.958;2023-03-01T09:34:59;19.33;;;12.80;;
9745;SDS011;4912;50.836;12.958;2023-03-01T09:37:38;19.88;;;13.75;;
9745;SDS011;4912;50.836;12.958;2023-03-01T09:40:11;17.70;;;12.18;;
9745;SDS011;4912;50.836;12.958;2023-03-01T09:42:47;21.70;;;13.70;;
9745;SDS011;4912;50.836;12.958;2023-03-01T09:45:26;20.25;;;12.50;;
9745;SDS011;4912;50.836;12.958;2023-03-01T09:48:03;18.30;;;12.15;;
9745;SDS011;4912;50.836;12.958;2023-03-01T09:50:38;20.55;;;14.32;;
9745;SDS011;4912;50.836;12.958;2023-03-01T09:53:17;18.73;;;13.45;;
9745;SDS011;4912;50.836;12.958;2023-03-01T09:55:51;19.52;;;11.80;;
9745;SDS011;4912;50.836;12.958;2023-03-01T09:58:35;19.95;;;13.50;;
9745;SDS011;4912;50.836;12.958;2023-03-01T10:04:12;20.48;;;13.65;;
9745;SDS011;4912;50.836;12.958;2023-03-01T10:07:03;21.20;;;13.88;;
9745;SDS011;4912;50.836;12.958;2023-03-01T10:09:48;20.27;;;13.60;;
9745;SDS011;4912;50.836;12.958;2023-03-01T10:12:20;20.35;;;13.63;;
9745;SDS011;4912;50.836;12.958;2023-03-01T10:14:57;22.70;;;13.80;;
9745;SDS011;4912;50.836;12.958;2023-03-01T10:17:35;21.05;;;13.80;;
9745;SDS011;4912;50.836;12.958;2023-03-01T10:20:15;21.45;;;13.80;;
9745;SDS011;4912;50.836;12.958;2023-03-01T10:22:51;21.45;;;14.07;;
9745;SDS011;4912;50.836;12.958;2023-03-01T10:25:36;20.35;;;14.05;;
9745;SDS011;4912;50.836;12.958;2023-03-01T10:28:23;19.63;;;13.13;;
9745;SDS011;4912;50.836;12.958;2023-03-01T10:31:01;20.50;;;13.88;;
9745;SDS011;4912;50.836;12.958;2023-03-01T10:33:35;19.10;;;13.30;;
9745;SDS011;4912;50.836;12.958;2023-03-01T10:36:08;21.25;;;14.25;;
9745;SDS011;4912;50.836;12.958;2023-03-01T10:38:49;20.35;;;14.18;;
9745;SDS011;4912;50.836;12.958;2023-03-01T10:41:26;22.02;;;13.65;;
9745;SDS011;4912;50.836;12.958;2023-03-01T10:43:58;18.52;;;13.43;;
9745;SDS011;4912;50.836;12.958;2023-03-01T10:46:32;18.42;;;13.35;;
9745;SDS011;4912;50.836;12.958;2023-03-01T10:49:05;18.92;;;12.80;;
9745;SDS011;4912;50.836;12.958;2023-03-01T10:51:44;20.83;;;13.25;;
9745;SDS011;4912;50.836;12.958;2023-03-01T10:54:18;21.65;;;13.85;;
9745;SDS011;4912;50.836;12.958;2023-03-01T10:56:53;17.80;;;12.65;;
9745;SDS011;4912;50.836;12.958;2023-03-01T10:59:30;22.75;;;13.85;;
9745;SDS011;4912;50.836;12.958;2023-03-01T11:02:15;19.15;;;13.82;;
9745;SDS011;4912;50.836;12.958;2023-03-01T11:04:56;20.13;;;14.13;;
9745;SDS011;4912;50.836;12.958;2023-03-01T11:07:29;21.80;;;14.05;;
9745;SDS011;4912;50.836;12.958;2023-03-01T11:09:59;20.65;;;14.02;;
9745;SDS011;4912;50.836;12.958;2023-03-01T11:12:44;20.52;;;13.85;;
9745;SDS011;4912;50.836;12.958;2023-03-01T11:15:20;21.17;;;15.32;;
9745;SDS011;4912;50.836;12.958;2023-03-01T11:17:55;21.70;;;14.60;;
9745;SDS011;4912;50.836;12.958;2023-03-01T11:20:39;20.50;;;14.93;;
9745;SDS011;4912;50.836;12.958;2023-03-01T11:23:13;22.02;;;14.65;;
9745;SDS011;4912;50.836;12.958;2023-03-01T11:25:51;19.15;;;15.50;;
9745;SDS011;4912;50.836;12.958;2023-03-01T11:28:28;25.05;;;16.08;;
9745;SDS011;4912;50.836;12.958;2023-03-01T11:31:00;19.92;;;15.52;;
9745;SDS011;4912;50.836;12.958;2023-03-01T11:33:37;22.05;;;16.42;;
9745;SDS011;4912;50.836;12.958;2023-03-01T11:36:27;19.80;;;15.80;;
9745;SDS011;4912;50.836;12.958;2023-03-01T11:39:13;19.27;;;16.08;;
9745;SDS011;4912;50.836;12.958;2023-03-01T11:41:52;22.05;;;16.55;;
9745;SDS011;4912;50.836;12.958;2023-03-01T11:44:47;18.63;;;15.27;;
9745;SDS011;4912;50.836;12.958;2023-03-01T11:47:30;18.30;;;14.00;;
9745;SDS011;4912;50.836;12.958;2023-03-01T11:50:19;18.05;;;13.80;;
9745;SDS011;4912;50.836;12.958;2023-03-01T11:55:57;18.13;;;14.30;;
9745;SDS011;4912;50.836;12.958;2023-03-01T11:58:41;16.35;;;14.15;;
9745;SDS011;4912;50.836;12.958;2023-03-01T12:01:33;17.63;;;13.88;;
9745;SDS011;4912;50.836;12.958;2023-03-01T12:04:34;17.48;;;14.80;;
9745;SDS011;4912;50.836;12.958;2023-03-01T12:07:43;16.55;;;13.70;;
9745;SDS011;4912;50.836;12.958;2023-03-01T12:10:23;17.00;;;13.70;;
9745;SDS011;4912;50.836;12.958;2023-03-01T12:13:05;15.63;;;12.90;;
9745;SDS011;4912;50.836;12.958;2023-03-01T12:15:54;16.02;;;13.88;;
9745;SDS011;4912;50.836;12.958;2023-03-01T12:18:50;18.23;;;15.18;;
9745;SDS011;4912;50.836;12.958;2023-03-01T12:24:46;19.60;;;16.45;;
9745;SDS011;4912;50.836;12.958;2023-03-01T12:27:44;19.02;;;15.80;;
9745;SDS011;4912;50.836;12.958;2023-03-01T12:30:41;17.98;;;15.82;;
9745;SDS011;4912;50.836;12.958;2023-03-01T12:33:26;21.08;;;17.90;;
9745;SDS011;4912;50.836;12.958;2023-03-01T12:36:18;20.20;;;17.17;;
9745;SDS011;4912;50.836;12.958;2023-03-01T12:39:11;20.10;;;17.40;;
9745;SDS011;4912;50.836;12.958;2023-03-01T12:41:58;21.15;;;16.88;;
9745;SDS011;4912;50.836;12.958;2023-03-01T12:44:41;18.73;;;16.73;;
9745;SDS011;4912;50.836;12.958;2023-03-01T12:47:29;20.17;;;16.60;;
9745;SDS011;4912;50.836;12.958;2023-03-01T12:50:18;18.60;;;16.60;;
9745;SDS011;4912;50.836;12.958;2023-03-01T12:52:55;18.48;;;16.02;;
9745;SDS011;4912;50.836;12.958;2023-03-01T12:55:28;19.20;;;16.40;;
9745;SDS011;4912;50.836;12.958;2023-03-01T12:58:05;19.65;;;16.35;;
9745;SDS011;4912;50.836;12.958;2023-03-01T13:00:45;23.07;;;17.50;;
9745;SDS011;4912;50.836;12.958;2023-03-01T13:03:31;19.92;;;16.50;;
9745;SDS011;4912;50.836;12.958;2023-03-01T13:06:23;21.05;;;17.13;;
9745;SDS011;4912;50.836;12.958;2023-03-01T13:09:14;18.25;;;16.25;;
9745;SDS011;4912;50.836;12.958;2023-03-01T13:11:54;21.10;;;16.67;;
9745;SDS011;4912;50.836;12.958;2023-03-01T13:14:37;22.15;;;17.33;;
9745;SDS011;4912;50.836;12.958;2023-03-01T13:20:13;21.33;;;17.13;;
9745;SDS011;4912;50.836;12.958;2023-03-01T13:22:47;20.80;;;17.55;;
9745;SDS011;4912;50.836;12.958;2023-03-01T13:25:33;19.30;;;16.25;;
9745;SDS011;4912;50.836;12.958;2023-03-01T13:31:10;20.23;;;15.63;;
9745;SDS011;4912;50.836;12.958;2023-03-01T13:37:31;18.87;;;16.57;;
9745;SDS011;4912;50.836;12.958;2023-03-01T13:40:08;19.73;;;16.73;;
9745;SDS011;4912;50.836;12.958;2023-03-01T13:43:30;16.90;;;15.13;;
9745;SDS011;4912;50.836;12.958;2023-03-01T13:46:07;17.98;;;15.45;;
9745;SDS011;4912;50.836;12.958;2023-03-01T13:48:40;18.15;;;14.95;;
9745;SDS011;4912;50.836;12.958;2023-03-01T13:51:14;18.80;;;15.18;;
9745;SDS011;4912;50.836;12.958;2023-03-01T13:53:46;17.95;;;15.30;;
9745;SDS011;4912;50.836;12.958;2023-03-01T13:56:21;19.98;;;15.07;;
9745;SDS011;4912;50.836;12.958;2023-03-01T13:58:58;17.63;;;15.38;;
9745;SDS011;4912;50.836;12.958;2023-03-01T14:01:32;20.27;;;16.00;;
9745;SDS011;4912;50.836;12.958;2023-03-01T14:04:18;18.42;;;15.23;;
9745;SDS011;4912;50.836;12.958;2023-03-01T14:06:52;19.52;;;15.25;;
9745;SDS011;4912;50.836;12.958;2023-03-01T14:09:40;20.60;;;15.52;;
9745;SDS011;4912;50.836;12.958;2023-03-01T14:12:22;19.23;;;15.30;;
9745;SDS011;4912;50.836;12.958;2023-03-01T14:15:10;19.30;;;15.70;;
9745;SDS011;4912;50.836;12.958;2023-03-01T14:17:58;19.63;;;14.82;;
9745;SDS011;4912;50.836;12.958;2023-03-01T14:20:37;18.40;;;15.18;;
9745;SDS011;4912;50.836;12.958;2023-03-01T14:23:13;20.27;;;15.40;;
9745;SDS011;4912;50.836;12.958;2023-03-01T14:25:47;19.15;;;14.50;;
9745;SDS011;4912;50.836;12.958;2023-03-01T14:28:23;20.42;;;15.32;;
9745;SDS011;4912;50.836;12.958;2023-03-01T14:30:56;19.02;;;14.75;;
9745;SDS011;4912;50.836;12.958;2023-03-01T14:33:30;20.90;;;15.43;;
9745;SDS011;4912;50.836;12.958;2023-03-01T14:36:04;19.10;;;14.85;;
9745;SDS011;4912;50.836;12.958;2023-03-01T14:38:37;21.15;;;15.25;;
9745;SDS011;4912;50.836;12.958;2023-03-01T14:41:13;19.65;;;15.90;;
9745;SDS011;4912;50.836;12.958;2023-03-01T14:43:50;22.60;;;15.38;;
9745;SDS011;4912;50.836;12.958;2023-03-01T14:46:25;19.63;;;14.57;;
9745;SDS011;4912;50.836;12.958;2023-03-01T14:49:04;19.20;;;14.38;;
9745;SDS011;4912;50.836;12.958;2023-03-01T14:51:45;20.27;;;14.33;;
9745;SDS011;4912;50.836;12.958;2023-03-01T14:54:23;20.60;;;14.35;;
9745;SDS011;4912;50.836;12.958;2023-03-01T14:56:58;20.33;;;14.68;;
9745;SDS011;4912;50.836;12.958;2023-03-01T14:59:33;19.40;;;14.25;;
9745;SDS011;4912;50.836;12.958;2023-03-01T15:02:03;22.42;;;16.20;;
9745;SDS011;4912;50.836;12.958;2023-03-01T15:04:38;18.35;;;14.80;;
9745;SDS011;4912;50.836;12.958;2023-03-01T15:07:11;19.35;;;14.38;;
9745;SDS011;4912;50.836;12.958;2023-03-01T15:09:43;21.60;;;15.05;;
9745;SDS011;4912;50.836;12.958;2023-03-01T15:12:24;21.27;;;15.00;;
9745;SDS011;4912;50.836;12.958;2023-03-01T15:18:16;21.00;;;13.68;;
9745;SDS011;4912;50.836;12.958;2023-03-01T15:20:50;21.42;;;14.07;;
9745;SDS011;4912;50.836;12.958;2023-03-01T15:23:23;21.67;;;13.77;;
9745;SDS011;4912;50.836;12.958;2023-03-01T15:25:55;19.15;;;13.30;;
9745;SDS011;4912;50.836;12.958;2023-03-01T15:28:28;21.30;;;13.70;;
9745;SDS011;4912;50.836;12.958;2023-03-01T15:31:04;18.63;;;12.52;;
9745;SDS011;4912;50.836;12.958;2023-03-01T15:33:47;19.85;;;13.25;;
9745;SDS011;4912;50.836;12.958;2023-03-01T15:36:32;18.98;;;13.02;;
9745;SDS011;4912;50.836;12.958;2023-03-01T15:42:08;18.77;;;12.63;;
9745;SDS011;4912;50.836;12.958;2023-03-01T15:44:43;19.08;;;12.82;;
9745;SDS011;4912;50.836;12.958;2023-03-01T15:49:56;20.88;;;12.75;;
9745;SDS011;4912;50.836;12.958;2023-03-01T15:52:30;19.48;;;12.90;;
9745;SDS011;4912;50.836;12.958;2023-03-01T15:55:12;22.75;;;13.13;;
9745;SDS011;4912;50.836;12.958;2023-03-01T15:57:46;21.27;;;13.00;;
9745;SDS011;4912;50.836;12.958;2023-03-01T16:00:18;19.73;;;13.23;;
9745;SDS011;4912;50.836;12.958;2023-03-01T16:02:55;25.25;;;14.60;;